sensor_id;sensor_type;location;lat;lon;timestamp;P1;durP1;ratioP1;P2;durP2;ratioP2
77099;SDS011;66602;48.922;2.414;2023-12-22T00:01:20;8.52;;;2.65;;
77099;SDS011;66602;48.922;2.414;2023-12-22T00:03:46;15.93;;;4.32;;
77099;SDS011;66602;48.922;2.414;2023-12-22T00:06:11;10.50;;;3.20;;
77099;SDS011;66602;48.922;2.414;2023-12-22T00:08:37;10.98;;;2.78;;
77099;SDS011;66602;48.922;2.414;2023-12-22T00:11:03;8.00;;;2.50;;
77099;SDS011;66602;48.922;2.414;2023-12-22T00:13:29;9.60;;;3.13;;
77099;SDS011;66602;48.922;2.414;2023-12-22T00:15:54;11.23;;;2.72;;
77099;SDS011;66602;48.922;2.414;2023-12-22T00:18:20;11.38;;;2.33;;
77099;SDS011;66602;48.922;2.414;2023-12-22T00:20:46;12.68;;;3.17;;
77099;SDS011;66602;48.922;2.414;2023-12-22T00:23:11;11.43;;;3.10;;
77099;SDS011;66602;48.922;2.414;2023-12-22T00:25:37;14.35;;;2.60;;
77099;SDS011;66602;48.922;2.414;2023-12-22T00:28:02;7.13;;;2.38;;
77099;SDS011;66602;48.922;2.414;2023-12-22T00:30:28;10.68;;;2.92;;
77099;SDS011;66602;48.922;2.414;2023-12-22T00:32:54;14.35;;;3.10;;
77099;SDS011;66602;48.922;2.414;2023-12-22T00:35:19;15.60;;;3.08;;
77099;SDS011;66602;48.922;2.414;2023-12-22T00:37:45;14.73;;;2.88;;
77099;SDS011;66602;48.922;2.414;2023-12-22T00:40:10;17.30;;;3.05;;
77099;SDS011;66602;48.922;2.414;2023-12-22T00:42:36;14.07;;;2.88;;
77099;SDS011;66602;48.922;2.414;2023-12-22T00:45:01;10.18;;;2.70;;
77099;SDS011;66602;48.922;2.414;2023-12-22T00:47:28;8.95;;;2.78;;
77099;SDS011;66602;48.922;2.414;2023-12-22T00:49:53;8.57;;;3.15;;
77099;SDS011;66602;48.922;2.414;2023-12-22T00:52:19;12.55;;;2.35;;
77099;SDS011;66602;48.922;2.414;2023-12-22T00:54:44;9.48;;;2.35;;
77099;SDS011;66602;48.922;2.414;2023-12-22T00:57:10;20.77;;;4.60;;
77099;SDS011;66602;48.922;2.414;2023-12-22T00:59:36;8.50;;;2.55;;
77099;SDS011;66602;48.922;2.414;2023-12-22T01:02:02;13.90;;;2.72;;
77099;SDS011;66602;48.922;2.414;2023-12-22T01:04:27;12.50;;;2.60;;
77099;SDS011;66602;48.922;2.414;2023-12-22T01:06:53;16.35;;;3.10;;
77099;SDS011;66602;48.922;2.414;2023-12-22T01:09:18;21.05;;;3.75;;
77099;SDS011;66602;48.922;2.414;2023-12-22T01:11:45;10.85;;;2.97;;
77099;SDS011;66602;48.922;2.414;2023-12-22T01:14:10;11.50;;;3.15;;
77099;SDS011;66602;48.922;2.414;2023-12-22T01:16:38;9.73;;;2.78;;
77099;SDS011;66602;48.922;2.414;2023-12-22T01:19:04;16.48;;;3.67;;
77099;SDS011;66602;48.922;2.414;2023-12-22T01:21:29;9.50;;;2.78;;
77099;SDS011;66602;48.922;2.414;2023-12-22T01:23:55;24.33;;;4.38;;
77099;SDS011;66602;48.922;2.414;2023-12-22T01:26:20;13.07;;;3.45;;
77099;SDS011;66602;48.922;2.414;2023-12-22T01:28:46;8.55;;;2.63;;
77099;SDS011;66602;48.922;2.414;2023-12-22T01:31:11;15.68;;;3.13;;
77099;SDS011;66602;48.922;2.414;2023-12-22T01:33:36;13.43;;;3.38;;
77099;SDS011;66602;48.922;2.414;2023-12-22T01:36:02;11.88;;;3.00;;
77099;SDS011;66602;48.922;2.414;2023-12-22T01:38:28;16.25;;;3.47;;
77099;SDS011;66602;48.922;2.414;2023-12-22T01:40:53;16.27;;;3.42;;
77099;SDS011;66602;48.922;2.414;2023-12-22T01:43:19;14.85;;;3.53;;
77099;SDS011;66602;48.922;2.414;2023-12-22T01:45:50;13.70;;;2.53;;
77099;SDS011;66602;48.922;2.414;2023-12-22T01:50:48;9.93;;;2.65;;
77099;SDS011;66602;48.922;2.414;2023-12-22T01:53:16;12.85;;;3.03;;
77099;SDS011;66602;48.922;2.414;2023-12-22T01:55:41;10.32;;;2.70;;
77099;SDS011;66602;48.922;2.414;2023-12-22T01:58:07;9.65;;;2.60;;
77099;SDS011;66602;48.922;2.414;2023-12-22T02:00:33;11.07;;;3.03;;
77099;SDS011;66602;48.922;2.414;2023-12-22T02:02:59;17.45;;;3.00;;
77099;SDS011;66602;48.922;2.414;2023-12-22T02:05:25;10.48;;;2.83;;
77099;SDS011;66602;48.922;2.414;2023-12-22T02:07:50;14.23;;;2.78;;
77099;SDS011;66602;48.922;2.414;2023-12-22T02:10:16;9.40;;;3.25;;
77099;SDS011;66602;48.922;2.414;2023-12-22T02:12:41;14.30;;;2.95;;
77099;SDS011;66602;48.922;2.414;2023-12-22T02:15:07;6.30;;;2.90;;
77099;SDS011;66602;48.922;2.414;2023-12-22T02:20:08;9.60;;;3.22;;
77099;SDS011;66602;48.922;2.414;2023-12-22T02:22:35;14.20;;;3.42;;
77099;SDS011;66602;48.922;2.414;2023-12-22T02:25:00;12.90;;;2.92;;
77099;SDS011;66602;48.922;2.414;2023-12-22T02:27:45;13.55;;;3.38;;
77099;SDS011;66602;48.922;2.414;2023-12-22T02:30:14;8.95;;;2.20;;
77099;SDS011;66602;48.922;2.414;2023-12-22T02:32:47;14.00;;;3.30;;
77099;SDS011;66602;48.922;2.414;2023-12-22T02:35:18;12.93;;;2.97;;
77099;SDS011;66602;48.922;2.414;2023-12-22T02:37:46;7.20;;;2.78;;
77099;SDS011;66602;48.922;2.414;2023-12-22T02:40:13;14.23;;;2.58;;
77099;SDS011;66602;48.922;2.414;2023-12-22T02:42:39;9.13;;;2.53;;
77099;SDS011;66602;48.922;2.414;2023-12-22T02:45:05;11.95;;;2.67;;
77099;SDS011;66602;48.922;2.414;2023-12-22T02:47:37;18.63;;;2.80;;
77099;SDS011;66602;48.922;2.414;2023-12-22T02:50:03;8.95;;;2.38;;
77099;SDS011;66602;48.922;2.414;2023-12-22T02:52:29;9.98;;;2.97;;
77099;SDS011;66602;48.922;2.414;2023-12-22T02:54:56;7.65;;;2.65;;
77099;SDS011;66602;48.922;2.414;2023-12-22T02:57:22;13.32;;;3.15;;
77099;SDS011;66602;48.922;2.414;2023-12-22T02:59:48;8.35;;;3.20;;
77099;SDS011;66602;48.922;2.414;2023-12-22T03:02:13;9.85;;;3.00;;
77099;SDS011;66602;48.922;2.414;2023-12-22T03:04:39;11.00;;;2.47;;
77099;SDS011;66602;48.922;2.414;2023-12-22T03:07:05;9.48;;;2.40;;
77099;SDS011;66602;48.922;2.414;2023-12-22T03:09:30;10.20;;;2.75;;
77099;SDS011;66602;48.922;2.414;2023-12-22T03:11:57;10.00;;;2.97;;
77099;SDS011;66602;48.922;2.414;2023-12-22T03:14:28;8.45;;;2.30;;
77099;SDS011;66602;48.922;2.414;2023-12-22T03:17:00;14.30;;;2.65;;
77099;SDS011;66602;48.922;2.414;2023-12-22T03:19:26;12.52;;;2.97;;
77099;SDS011;66602;48.922;2.414;2023-12-22T03:21:51;11.98;;;3.50;;
77099;SDS011;66602;48.922;2.414;2023-12-22T03:24:17;9.00;;;3.35;;
77099;SDS011;66602;48.922;2.414;2023-12-22T03:26:47;13.45;;;2.80;;
77099;SDS011;66602;48.922;2.414;2023-12-22T03:29:15;11.15;;;2.47;;
77099;SDS011;66602;48.922;2.414;2023-12-22T03:31:41;12.55;;;2.40;;
77099;SDS011;66602;48.922;2.414;2023-12-22T03:34:06;10.50;;;2.25;;
77099;SDS011;66602;48.922;2.414;2023-12-22T03:36:32;7.00;;;1.85;;
77099;SDS011;66602;48.922;2.414;2023-12-22T03:38:57;15.77;;;2.65;;
77099;SDS011;66602;48.922;2.414;2023-12-22T03:41:23;9.05;;;2.40;;
77099;SDS011;66602;48.922;2.414;2023-12-22T03:43:48;8.48;;;2.42;;
77099;SDS011;66602;48.922;2.414;2023-12-22T03:46:14;12.65;;;2.45;;
77099;SDS011;66602;48.922;2.414;2023-12-22T03:48:40;10.35;;;2.10;;
77099;SDS011;66602;48.922;2.414;2023-12-22T03:51:05;5.10;;;2.33;;
77099;SDS011;66602;48.922;2.414;2023-12-22T03:53:31;14.27;;;2.38;;
77099;SDS011;66602;48.922;2.414;2023-12-22T03:55:56;6.88;;;2.90;;
77099;SDS011;66602;48.922;2.414;2023-12-22T03:58:22;9.93;;;3.42;;
77099;SDS011;66602;48.922;2.414;2023-12-22T04:00:47;10.35;;;2.63;;
77099;SDS011;66602;48.922;2.414;2023-12-22T04:03:13;11.60;;;3.33;;
77099;SDS011;66602;48.922;2.414;2023-12-22T04:05:39;14.80;;;2.72;;
77099;SDS011;66602;48.922;2.414;2023-12-22T04:08:04;10.02;;;2.55;;
77099;SDS011;66602;48.922;2.414;2023-12-22T04:10:31;9.32;;;2.58;;
77099;SDS011;66602;48.922;2.414;2023-12-22T04:12:56;15.52;;;2.47;;
77099;SDS011;66602;48.922;2.414;2023-12-22T04:15:22;7.85;;;2.67;;
77099;SDS011;66602;48.922;2.414;2023-12-22T04:17:47;13.02;;;2.70;;
77099;SDS011;66602;48.922;2.414;2023-12-22T04:20:14;10.45;;;2.63;;
77099;SDS011;66602;48.922;2.414;2023-12-22T04:22:39;7.55;;;2.13;;
77099;SDS011;66602;48.922;2.414;2023-12-22T04:25:05;9.18;;;2.30;;
77099;SDS011;66602;48.922;2.414;2023-12-22T04:27:31;15.52;;;3.00;;
77099;SDS011;66602;48.922;2.414;2023-12-22T04:29:57;9.00;;;2.47;;
77099;SDS011;66602;48.922;2.414;2023-12-22T04:32:22;8.55;;;2.42;;
77099;SDS011;66602;48.922;2.414;2023-12-22T04:34:48;25.60;;;2.60;;
77099;SDS011;66602;48.922;2.414;2023-12-22T04:37:13;7.03;;;2.10;;
77099;SDS011;66602;48.922;2.414;2023-12-22T04:39:39;10.75;;;2.58;;
77099;SDS011;66602;48.922;2.414;2023-12-22T04:42:05;8.90;;;2.78;;
77099;SDS011;66602;48.922;2.414;2023-12-22T04:44:30;7.97;;;1.65;;
77099;SDS011;66602;48.922;2.414;2023-12-22T04:46:56;6.05;;;2.20;;
77099;SDS011;66602;48.922;2.414;2023-12-22T04:49:21;6.47;;;1.95;;
77099;SDS011;66602;48.922;2.414;2023-12-22T04:51:47;6.97;;;1.30;;
77099;SDS011;66602;48.922;2.414;2023-12-22T04:54:12;8.82;;;1.73;;
77099;SDS011;66602;48.922;2.414;2023-12-22T04:56:38;9.63;;;2.38;;
77099;SDS011;66602;48.922;2.414;2023-12-22T04:59:03;4.80;;;2.08;;
77099;SDS011;66602;48.922;2.414;2023-12-22T05:01:29;9.10;;;2.63;;
77099;SDS011;66602;48.922;2.414;2023-12-22T05:03:54;11.10;;;1.77;;
77099;SDS011;66602;48.922;2.414;2023-12-22T05:06:20;4.53;;;1.65;;
77099;SDS011;66602;48.922;2.414;2023-12-22T05:08:45;6.25;;;1.55;;
77099;SDS011;66602;48.922;2.414;2023-12-22T05:11:11;5.05;;;1.52;;
77099;SDS011;66602;48.922;2.414;2023-12-22T05:13:37;8.55;;;2.22;;
77099;SDS011;66602;48.922;2.414;2023-12-22T05:16:03;8.80;;;1.90;;
77099;SDS011;66602;48.922;2.414;2023-12-22T05:18:29;6.60;;;2.28;;
77099;SDS011;66602;48.922;2.414;2023-12-22T05:20:55;7.40;;;1.77;;
77099;SDS011;66602;48.922;2.414;2023-12-22T05:23:20;7.78;;;2.15;;
77099;SDS011;66602;48.922;2.414;2023-12-22T05:25:47;8.43;;;1.75;;
77099;SDS011;66602;48.922;2.414;2023-12-22T05:28:12;8.43;;;1.80;;
77099;SDS011;66602;48.922;2.414;2023-12-22T05:30:37;8.88;;;1.88;;
77099;SDS011;66602;48.922;2.414;2023-12-22T05:33:03;7.70;;;1.55;;
77099;SDS011;66602;48.922;2.414;2023-12-22T05:35:29;9.68;;;2.00;;
77099;SDS011;66602;48.922;2.414;2023-12-22T05:37:54;2.65;;;1.50;;
77099;SDS011;66602;48.922;2.414;2023-12-22T05:40:20;7.05;;;2.53;;
77099;SDS011;66602;48.922;2.414;2023-12-22T05:42:45;11.48;;;2.10;;
77099;SDS011;66602;48.922;2.414;2023-12-22T05:45:11;7.80;;;2.13;;
77099;SDS011;66602;48.922;2.414;2023-12-22T05:47:37;7.32;;;1.58;;
77099;SDS011;66602;48.922;2.414;2023-12-22T05:50:03;4.63;;;1.52;;
77099;SDS011;66602;48.922;2.414;2023-12-22T05:52:29;7.57;;;1.80;;
77099;SDS011;66602;48.922;2.414;2023-12-22T05:54:54;2.83;;;1.67;;
77099;SDS011;66602;48.922;2.414;2023-12-22T05:57:20;8.23;;;2.08;;
77099;SDS011;66602;48.922;2.414;2023-12-22T05:59:45;5.50;;;1.52;;
77099;SDS011;66602;48.922;2.414;2023-12-22T06:02:11;6.05;;;1.90;;
77099;SDS011;66602;48.922;2.414;2023-12-22T06:04:36;3.30;;;1.42;;
77099;SDS011;66602;48.922;2.414;2023-12-22T06:07:02;5.55;;;1.55;;
77099;SDS011;66602;48.922;2.414;2023-12-22T06:09:27;6.28;;;1.65;;
77099;SDS011;66602;48.922;2.414;2023-12-22T06:11:53;5.32;;;1.77;;
77099;SDS011;66602;48.922;2.414;2023-12-22T06:14:19;7.72;;;1.45;;
77099;SDS011;66602;48.922;2.414;2023-12-22T06:16:44;3.45;;;1.42;;
77099;SDS011;66602;48.922;2.414;2023-12-22T06:19:09;6.75;;;1.65;;
77099;SDS011;66602;48.922;2.414;2023-12-22T06:21:38;6.65;;;2.15;;
77099;SDS011;66602;48.922;2.414;2023-12-22T06:24:04;5.07;;;1.73;;
77099;SDS011;66602;48.922;2.414;2023-12-22T06:26:30;8.50;;;2.00;;
77099;SDS011;66602;48.922;2.414;2023-12-22T06:28:55;3.28;;;1.27;;
77099;SDS011;66602;48.922;2.414;2023-12-22T06:31:21;3.35;;;1.45;;
77099;SDS011;66602;48.922;2.414;2023-12-22T06:33:48;4.00;;;1.42;;
77099;SDS011;66602;48.922;2.414;2023-12-22T06:36:17;9.13;;;4.82;;
77099;SDS011;66602;48.922;2.414;2023-12-22T06:38:44;9.60;;;2.50;;
77099;SDS011;66602;48.922;2.414;2023-12-22T06:41:18;10.88;;;4.00;;
77099;SDS011;66602;48.922;2.414;2023-12-22T06:43:54;4.40;;;2.65;;
77099;SDS011;66602;48.922;2.414;2023-12-22T06:46:21;5.43;;;2.50;;
77099;SDS011;66602;48.922;2.414;2023-12-22T06:48:48;4.43;;;2.05;;
77099;SDS011;66602;48.922;2.414;2023-12-22T06:51:21;5.93;;;2.05;;
77099;SDS011;66602;48.922;2.414;2023-12-22T06:53:55;9.32;;;2.45;;
77099;SDS011;66602;48.922;2.414;2023-12-22T06:56:23;11.23;;;3.60;;
77099;SDS011;66602;48.922;2.414;2023-12-22T06:58:50;4.25;;;1.70;;
77099;SDS011;66602;48.922;2.414;2023-12-22T07:01:24;8.57;;;2.53;;
77099;SDS011;66602;48.922;2.414;2023-12-22T07:03:51;8.10;;;4.07;;
77099;SDS011;66602;48.922;2.414;2023-12-22T07:06:20;13.18;;;2.95;;
77099;SDS011;66602;48.922;2.414;2023-12-22T07:11:24;6.05;;;2.63;;
77099;SDS011;66602;48.922;2.414;2023-12-22T07:13:49;5.70;;;2.10;;
77099;SDS011;66602;48.922;2.414;2023-12-22T07:16:15;10.45;;;1.88;;
77099;SDS011;66602;48.922;2.414;2023-12-22T07:18:40;5.75;;;2.45;;
77099;SDS011;66602;48.922;2.414;2023-12-22T07:21:06;9.20;;;5.13;;
77099;SDS011;66602;48.922;2.414;2023-12-22T07:23:32;11.15;;;3.58;;
77099;SDS011;66602;48.922;2.414;2023-12-22T07:25:58;10.60;;;3.00;;
77099;SDS011;66602;48.922;2.414;2023-12-22T07:28:23;10.02;;;3.22;;
77099;SDS011;66602;48.922;2.414;2023-12-22T07:30:48;12.70;;;2.95;;
77099;SDS011;66602;48.922;2.414;2023-12-22T07:33:14;9.20;;;3.05;;
77099;SDS011;66602;48.922;2.414;2023-12-22T07:35:40;4.28;;;2.90;;
77099;SDS011;66602;48.922;2.414;2023-12-22T07:38:05;8.00;;;2.90;;
77099;SDS011;66602;48.922;2.414;2023-12-22T07:40:31;5.63;;;2.30;;
77099;SDS011;66602;48.922;2.414;2023-12-22T07:42:56;6.70;;;2.13;;
77099;SDS011;66602;48.922;2.414;2023-12-22T07:45:22;8.38;;;2.35;;
77099;SDS011;66602;48.922;2.414;2023-12-22T07:47:48;2.92;;;2.28;;
77099;SDS011;66602;48.922;2.414;2023-12-22T07:50:16;6.88;;;1.95;;
77099;SDS011;66602;48.922;2.414;2023-12-22T07:52:43;2.85;;;1.95;;
77099;SDS011;66602;48.922;2.414;2023-12-22T07:55:09;2.90;;;2.10;;
77099;SDS011;66602;48.922;2.414;2023-12-22T07:57:35;4.18;;;1.98;;
77099;SDS011;66602;48.922;2.414;2023-12-22T08:00:02;5.82;;;3.00;;
77099;SDS011;66602;48.922;2.414;2023-12-22T08:02:29;4.65;;;1.75;;
77099;SDS011;66602;48.922;2.414;2023-12-22T08:04:55;2.53;;;2.20;;
77099;SDS011;66602;48.922;2.414;2023-12-22T08:07:21;6.65;;;2.55;;
77099;SDS011;66602;48.922;2.414;2023-12-22T08:09:46;2.75;;;2.17;;
77099;SDS011;66602;48.922;2.414;2023-12-22T08:12:12;3.42;;;1.92;;
77099;SDS011;66602;48.922;2.414;2023-12-22T08:14:37;8.35;;;2.38;;
77099;SDS011;66602;48.922;2.414;2023-12-22T08:17:03;11.32;;;3.20;;
77099;SDS011;66602;48.922;2.414;2023-12-22T08:19:28;3.30;;;1.30;;
77099;SDS011;66602;48.922;2.414;2023-12-22T08:21:54;2.42;;;1.40;;
77099;SDS011;66602;48.922;2.414;2023-12-22T08:24:20;6.88;;;1.95;;
77099;SDS011;66602;48.922;2.414;2023-12-22T08:26:46;3.42;;;1.27;;
77099;SDS011;66602;48.922;2.414;2023-12-22T08:29:12;2.10;;;1.00;;
77099;SDS011;66602;48.922;2.414;2023-12-22T08:31:38;3.50;;;1.40;;
77099;SDS011;66602;48.922;2.414;2023-12-22T08:34:04;1.08;;;0.98;;
77099;SDS011;66602;48.922;2.414;2023-12-22T08:36:31;1.00;;;1.00;;
77099;SDS011;66602;48.922;2.414;2023-12-22T08:38:57;2.58;;;1.30;;
77099;SDS011;66602;48.922;2.414;2023-12-22T08:41:23;3.08;;;1.38;;
77099;SDS011;66602;48.922;2.414;2023-12-22T08:43:49;1.23;;;1.20;;
77099;SDS011;66602;48.922;2.414;2023-12-22T08:46:15;2.45;;;1.23;;
77099;SDS011;66602;48.922;2.414;2023-12-22T08:48:41;2.20;;;1.58;;
77099;SDS011;66602;48.922;2.414;2023-12-22T08:51:07;8.43;;;1.65;;
77099;SDS011;66602;48.922;2.414;2023-12-22T08:53:33;2.35;;;1.20;;
77099;SDS011;66602;48.922;2.414;2023-12-22T08:56:02;3.03;;;2.17;;
77099;SDS011;66602;48.922;2.414;2023-12-22T08:58:29;4.13;;;2.80;;
77099;SDS011;66602;48.922;2.414;2023-12-22T09:00:55;5.10;;;4.13;;
77099;SDS011;66602;48.922;2.414;2023-12-22T09:03:20;7.05;;;2.28;;
77099;SDS011;66602;48.922;2.414;2023-12-22T09:05:46;13.77;;;2.30;;
77099;SDS011;66602;48.922;2.414;2023-12-22T09:08:12;8.32;;;1.90;;
77099;SDS011;66602;48.922;2.414;2023-12-22T09:10:38;2.28;;;1.98;;
77099;SDS011;66602;48.922;2.414;2023-12-22T09:13:04;11.13;;;2.15;;
77099;SDS011;66602;48.922;2.414;2023-12-22T09:15:29;9.02;;;2.78;;
77099;SDS011;66602;48.922;2.414;2023-12-22T09:17:55;9.00;;;2.25;;
77099;SDS011;66602;48.922;2.414;2023-12-22T09:20:21;2.15;;;1.95;;
77099;SDS011;66602;48.922;2.414;2023-12-22T09:22:47;2.03;;;1.67;;
77099;SDS011;66602;48.922;2.414;2023-12-22T09:25:13;4.32;;;1.75;;
77099;SDS011;66602;48.922;2.414;2023-12-22T09:27:38;7.15;;;1.98;;
77099;SDS011;66602;48.922;2.414;2023-12-22T09:30:04;3.97;;;1.75;;
77099;SDS011;66602;48.922;2.414;2023-12-22T09:32:32;2.20;;;1.50;;
77099;SDS011;66602;48.922;2.414;2023-12-22T09:34:58;2.55;;;1.60;;
77099;SDS011;66602;48.922;2.414;2023-12-22T09:37:26;2.88;;;1.17;;
77099;SDS011;66602;48.922;2.414;2023-12-22T09:39:51;2.45;;;1.52;;
77099;SDS011;66602;48.922;2.414;2023-12-22T09:42:17;6.68;;;1.58;;
77099;SDS011;66602;48.922;2.414;2023-12-22T09:44:49;10.32;;;1.73;;
77099;SDS011;66602;48.922;2.414;2023-12-22T09:47:48;6.35;;;1.88;;
77099;SDS011;66602;48.922;2.414;2023-12-22T09:50:44;4.47;;;1.48;;
77099;SDS011;66602;48.922;2.414;2023-12-22T09:53:31;4.15;;;1.60;;
77099;SDS011;66602;48.922;2.414;2023-12-22T09:56:00;4.82;;;2.22;;
77099;SDS011;66602;48.922;2.414;2023-12-22T09:58:26;5.03;;;1.75;;
77099;SDS011;66602;48.922;2.414;2023-12-22T10:00:52;6.50;;;2.20;;
77099;SDS011;66602;48.922;2.414;2023-12-22T10:03:20;3.75;;;1.60;;
77099;SDS011;66602;48.922;2.414;2023-12-22T10:05:50;5.53;;;1.77;;
77099;SDS011;66602;48.922;2.414;2023-12-22T10:08:16;1.25;;;1.15;;
77099;SDS011;66602;48.922;2.414;2023-12-22T10:10:44;4.53;;;1.40;;
77099;SDS011;66602;48.922;2.414;2023-12-22T10:13:12;5.55;;;2.65;;
77099;SDS011;66602;48.922;2.414;2023-12-22T10:15:39;1.83;;;1.25;;
77099;SDS011;66602;48.922;2.414;2023-12-22T10:18:07;4.68;;;1.85;;
77099;SDS011;66602;48.922;2.414;2023-12-22T10:20:34;3.90;;;1.88;;
77099;SDS011;66602;48.922;2.414;2023-12-22T10:23:00;2.63;;;2.40;;
77099;SDS011;66602;48.922;2.414;2023-12-22T10:25:29;2.72;;;1.95;;
77099;SDS011;66602;48.922;2.414;2023-12-22T10:27:56;3.83;;;3.53;;
77099;SDS011;66602;48.922;2.414;2023-12-22T10:30:44;4.40;;;2.72;;
77099;SDS011;66602;48.922;2.414;2023-12-22T10:33:14;4.57;;;2.25;;
77099;SDS011;66602;48.922;2.414;2023-12-22T10:35:42;4.95;;;1.65;;
77099;SDS011;66602;48.922;2.414;2023-12-22T10:38:08;5.63;;;2.40;;
77099;SDS011;66602;48.922;2.414;2023-12-22T10:40:38;5.25;;;1.73;;
77099;SDS011;66602;48.922;2.414;2023-12-22T10:43:04;7.28;;;3.47;;
77099;SDS011;66602;48.922;2.414;2023-12-22T10:45:39;7.55;;;2.45;;
77099;SDS011;66602;48.922;2.414;2023-12-22T10:48:16;5.47;;;2.63;;
77099;SDS011;66602;48.922;2.414;2023-12-22T10:50:43;2.90;;;1.70;;
77099;SDS011;66602;48.922;2.414;2023-12-22T10:53:12;11.15;;;2.80;;
77099;SDS011;66602;48.922;2.414;2023-12-22T10:55:38;5.10;;;2.63;;
77099;SDS011;66602;48.922;2.414;2023-12-22T10:58:05;5.25;;;1.70;;
77099;SDS011;66602;48.922;2.414;2023-12-22T11:00:35;4.72;;;2.05;;
77099;SDS011;66602;48.922;2.414;2023-12-22T11:03:16;2.67;;;2.40;;
77099;SDS011;66602;48.922;2.414;2023-12-22T11:05:46;6.07;;;1.88;;
77099;SDS011;66602;48.922;2.414;2023-12-22T11:08:25;8.38;;;2.38;;
77099;SDS011;66602;48.922;2.414;2023-12-22T11:11:42;7.35;;;3.53;;
77099;SDS011;66602;48.922;2.414;2023-12-22T11:14:46;7.45;;;2.92;;
77099;SDS011;66602;48.922;2.414;2023-12-22T11:17:22;10.30;;;2.08;;
77099;SDS011;66602;48.922;2.414;2023-12-22T11:19:54;4.55;;;2.90;;
77099;SDS011;66602;48.922;2.414;2023-12-22T11:22:21;8.05;;;2.35;;
77099;SDS011;66602;48.922;2.414;2023-12-22T11:25:28;10.23;;;2.30;;
77099;SDS011;66602;48.922;2.414;2023-12-22T11:27:55;7.05;;;3.85;;
77099;SDS011;66602;48.922;2.414;2023-12-22T11:30:27;11.57;;;3.15;;
77099;SDS011;66602;48.922;2.414;2023-12-22T11:32:59;7.65;;;3.03;;
77099;SDS011;66602;48.922;2.414;2023-12-22T11:35:28;7.68;;;3.42;;
77099;SDS011;66602;48.922;2.414;2023-12-22T11:37:55;8.73;;;2.63;;
77099;SDS011;66602;48.922;2.414;2023-12-22T11:40:27;7.07;;;2.50;;
77099;SDS011;66602;48.922;2.414;2023-12-22T11:43:56;13.63;;;2.83;;
77099;SDS011;66602;48.922;2.414;2023-12-22T11:47:06;9.60;;;3.30;;
77099;SDS011;66602;48.922;2.414;2023-12-22T11:56:53;15.02;;;3.40;;
77099;SDS011;66602;48.922;2.414;2023-12-22T11:59:29;16.80;;;3.67;;
77099;SDS011;66602;48.922;2.414;2023-12-22T12:01:58;17.17;;;3.92;;
77099;SDS011;66602;48.922;2.414;2023-12-22T12:04:27;17.70;;;4.85;;
77099;SDS011;66602;48.922;2.414;2023-12-22T12:06:52;11.60;;;2.92;;
77099;SDS011;66602;48.922;2.414;2023-12-22T12:09:18;11.88;;;3.03;;
77099;SDS011;66602;48.922;2.414;2023-12-22T12:12:12;9.40;;;2.80;;
77099;SDS011;66602;48.922;2.414;2023-12-22T12:14:40;13.27;;;3.78;;
77099;SDS011;66602;48.922;2.414;2023-12-22T12:17:08;18.40;;;3.55;;
77099;SDS011;66602;48.922;2.414;2023-12-22T12:19:37;17.70;;;2.88;;
77099;SDS011;66602;48.922;2.414;2023-12-22T12:22:03;14.40;;;4.28;;
77099;SDS011;66602;48.922;2.414;2023-12-22T12:24:28;13.68;;;3.60;;
77099;SDS011;66602;48.922;2.414;2023-12-22T12:26:54;14.93;;;4.47;;
77099;SDS011;66602;48.922;2.414;2023-12-22T12:29:20;12.13;;;3.45;;
77099;SDS011;66602;48.922;2.414;2023-12-22T12:31:47;18.10;;;4.10;;
77099;SDS011;66602;48.922;2.414;2023-12-22T12:34:13;18.80;;;4.05;;
77099;SDS011;66602;48.922;2.414;2023-12-22T12:36:42;11.90;;;2.92;;
77099;SDS011;66602;48.922;2.414;2023-12-22T12:39:08;15.48;;;3.33;;
77099;SDS011;66602;48.922;2.414;2023-12-22T12:41:36;15.68;;;4.93;;
77099;SDS011;66602;48.922;2.414;2023-12-22T12:44:06;23.95;;;3.60;;
77099;SDS011;66602;48.922;2.414;2023-12-22T12:46:37;19.88;;;4.18;;
77099;SDS011;66602;48.922;2.414;2023-12-22T12:49:04;17.35;;;4.35;;
77099;SDS011;66602;48.922;2.414;2023-12-22T12:51:41;15.45;;;4.22;;
77099;SDS011;66602;48.922;2.414;2023-12-22T12:54:09;22.92;;;5.40;;
77099;SDS011;66602;48.922;2.414;2023-12-22T12:56:45;19.45;;;3.85;;
77099;SDS011;66602;48.922;2.414;2023-12-22T12:59:12;18.63;;;4.03;;
77099;SDS011;66602;48.922;2.414;2023-12-22T13:04:05;28.98;;;5.72;;
77099;SDS011;66602;48.922;2.414;2023-12-22T13:06:31;16.80;;;4.07;;
77099;SDS011;66602;48.922;2.414;2023-12-22T13:08:56;19.50;;;4.10;;
77099;SDS011;66602;48.922;2.414;2023-12-22T13:11:31;14.48;;;3.63;;
77099;SDS011;66602;48.922;2.414;2023-12-22T13:14:00;13.32;;;3.70;;
77099;SDS011;66602;48.922;2.414;2023-12-22T13:16:26;12.48;;;3.28;;
77099;SDS011;66602;48.922;2.414;2023-12-22T13:18:54;11.98;;;3.63;;
77099;SDS011;66602;48.922;2.414;2023-12-22T13:21:24;16.58;;;3.58;;
77099;SDS011;66602;48.922;2.414;2023-12-22T13:26:36;20.48;;;3.70;;
77099;SDS011;66602;48.922;2.414;2023-12-22T13:29:01;19.50;;;4.75;;
77099;SDS011;66602;48.922;2.414;2023-12-22T13:31:27;15.38;;;3.70;;
77099;SDS011;66602;48.922;2.414;2023-12-22T13:33:54;20.85;;;4.07;;
77099;SDS011;66602;48.922;2.414;2023-12-22T13:36:21;18.83;;;3.28;;
77099;SDS011;66602;48.922;2.414;2023-12-22T13:38:46;23.27;;;4.05;;
77099;SDS011;66602;48.922;2.414;2023-12-22T13:41:13;10.90;;;3.25;;
77099;SDS011;66602;48.922;2.414;2023-12-22T13:43:39;14.23;;;3.03;;
77099;SDS011;66602;48.922;2.414;2023-12-22T13:46:05;11.77;;;2.45;;
77099;SDS011;66602;48.922;2.414;2023-12-22T13:48:33;10.68;;;3.53;;
77099;SDS011;66602;48.922;2.414;2023-12-22T13:50:59;7.50;;;2.60;;
77099;SDS011;66602;48.922;2.414;2023-12-22T13:53:26;8.25;;;3.00;;
77099;SDS011;66602;48.922;2.414;2023-12-22T13:56:24;10.13;;;3.20;;
77099;SDS011;66602;48.922;2.414;2023-12-22T13:58:57;15.57;;;3.70;;
77099;SDS011;66602;48.922;2.414;2023-12-22T14:01:23;15.10;;;3.63;;
77099;SDS011;66602;48.922;2.414;2023-12-22T14:03:48;12.13;;;2.67;;
77099;SDS011;66602;48.922;2.414;2023-12-22T14:06:14;14.20;;;3.53;;
77099;SDS011;66602;48.922;2.414;2023-12-22T14:08:41;12.80;;;3.28;;
77099;SDS011;66602;48.922;2.414;2023-12-22T14:11:07;8.77;;;3.10;;
77099;SDS011;66602;48.922;2.414;2023-12-22T14:13:33;13.45;;;3.00;;
77099;SDS011;66602;48.922;2.414;2023-12-22T14:16:08;8.88;;;3.05;;
77099;SDS011;66602;48.922;2.414;2023-12-22T14:18:34;13.15;;;3.10;;
77099;SDS011;66602;48.922;2.414;2023-12-22T14:21:00;13.45;;;3.45;;
77099;SDS011;66602;48.922;2.414;2023-12-22T14:23:26;14.27;;;3.38;;
77099;SDS011;66602;48.922;2.414;2023-12-22T14:25:52;13.45;;;2.92;;
77099;SDS011;66602;48.922;2.414;2023-12-22T14:28:18;16.33;;;3.40;;
77099;SDS011;66602;48.922;2.414;2023-12-22T14:30:44;8.43;;;3.20;;
77099;SDS011;66602;48.922;2.414;2023-12-22T14:33:10;11.73;;;2.92;;
77099;SDS011;66602;48.922;2.414;2023-12-22T14:35:36;7.57;;;3.05;;
77099;SDS011;66602;48.922;2.414;2023-12-22T14:38:02;8.15;;;3.15;;
77099;SDS011;66602;48.922;2.414;2023-12-22T14:40:28;11.98;;;3.45;;
77099;SDS011;66602;48.922;2.414;2023-12-22T14:42:53;8.35;;;2.42;;
77099;SDS011;66602;48.922;2.414;2023-12-22T14:45:19;11.50;;;3.60;;
77099;SDS011;66602;48.922;2.414;2023-12-22T14:47:45;13.48;;;3.42;;
77099;SDS011;66602;48.922;2.414;2023-12-22T14:50:10;11.73;;;3.70;;
77099;SDS011;66602;48.922;2.414;2023-12-22T14:52:36;13.35;;;3.75;;
77099;SDS011;66602;48.922;2.414;2023-12-22T14:55:01;13.13;;;4.13;;
77099;SDS011;66602;48.922;2.414;2023-12-22T14:57:29;9.30;;;4.03;;
77099;SDS011;66602;48.922;2.414;2023-12-22T14:59:54;12.60;;;4.00;;
77099;SDS011;66602;48.922;2.414;2023-12-22T15:02:20;10.63;;;3.78;;
77099;SDS011;66602;48.922;2.414;2023-12-22T15:04:46;14.43;;;3.40;;